Time;durP1;ratioP1;P1;durP2;ratioP2;P2;SDS_P1;SDS_P2;PMS_P1;PMS_P2;Temp;Humidity;BMP_temperature;BMP_pressure;BME280_temperature;BME280_humidity;BME280_pressure;Samples;Min_cycle;Max_cycle;Signal;HPM_P1;HPM_P2
2023/06/03 00:02:19;;;;;;;2.30;1.90;;;25.00;93.70;;;;;;6140210;23;20175;-95
2023/06/03 00:04:51;;;;;;;4.17;1.83;;;25.30;93.90;;;;;;6135026;23;20197;-95
2023/06/03 00:07:26;;;;;;;2.13;1.50;;;24.60;93.40;;;;;;6136132;23;20201;-94
2023/06/03 00:09:57;;;;;;;3.13;1.67;;;24.50;93.70;;;;;;6137288;23;20261;-94
2023/06/03 00:12:29;;;;;;;4.27;2.30;;;24.80;94.50;;;;;;6136872;23;20185;-94
2023/06/03 00:15:09;;;;;;;3.63;1.70;;;25.00;93.90;;;;;;6139382;23;20179;-95
2023/06/03 00:17:42;;;;;;;4.27;1.70;;;24.80;94.20;;;;;;6152587;23;20238;-96
2023/06/03 00:20:14;;;;;;;4.90;2.17;;;25.00;93.70;;;;;;6129028;23;20196;-94
2023/06/03 00:22:50;;;;;;;3.97;1.77;;;25.10;94.70;;;;;;6142347;23;20640;-95
2023/06/03 00:25:22;;;;;;;5.43;1.97;;;25.10;94.90;;;;;;6136131;23;20197;-94
2023/06/03 00:27:54;;;;;;;4.03;1.90;;;25.10;94.60;;;;;;6131835;23;20175;-94
2023/06/03 00:30:25;;;;;;;4.73;1.97;;;25.00;94.40;;;;;;6134396;23;20272;-93
2023/06/03 00:32:58;;;;;;;4.43;1.90;;;25.00;94.30;;;;;;6132377;23;20265;-93
2023/06/03 00:35:30;;;;;;;4.13;1.90;;;25.00;94.80;;;;;;6108617;23;20178;-93
2023/06/03 00:38:05;;;;;;;3.73;1.80;;;25.20;95.00;;;;;;6133904;23;20178;-94
2023/06/03 00:40:37;;;;;;;4.63;1.77;;;25.10;94.20;;;;;;6135698;23;20201;-93
2023/06/03 00:43:09;;;;;;;3.47;1.73;;;25.00;93.40;;;;;;6131749;23;20179;-94
2023/06/03 00:45:41;;;;;;;3.50;2.10;;;24.30;93.70;;;;;;6133476;23;20178;-94
2023/06/03 00:48:13;;;;;;;3.13;1.60;;;24.00;93.40;;;;;;6132967;23;20189;-94
2023/06/03 00:50:46;;;;;;;3.03;1.87;;;24.40;93.70;;;;;;6132924;23;20603;-94
2023/06/03 00:53:20;;;;;;;3.47;1.63;;;24.80;94.10;;;;;;6132742;23;20197;-94
2023/06/03 00:55:53;;;;;;;3.33;1.57;;;25.60;94.20;;;;;;6132009;23;20238;-94
2023/06/03 00:58:25;;;;;;;3.47;1.73;;;26.30;94.50;;;;;;6138443;23;20194;-95
2023/06/03 01:01:00;;;;;;;2.57;1.93;;;26.40;93.20;;;;;;6134786;23;20182;-95
2023/06/03 01:03:33;;;;;;;3.60;2.00;;;27.00;93.20;;;;;;6132781;23;20174;-94
2023/06/03 01:06:15;;;;;;;4.97;1.70;;;26.80;92.30;;;;;;6131119;23;20206;-95
2023/06/03 01:09:07;;;;;;;2.13;1.60;;;27.00;92.40;;;;;;6085871;23;20253;-95
2023/06/03 01:11:47;;;;;;;3.73;1.80;;;27.10;92.60;;;;;;6131468;23;20498;-94
2023/06/03 01:14:24;;;;;;;4.33;1.90;;;27.20;92.30;;;;;;6132852;23;20209;-95
2023/06/03 01:16:59;;;;;;;2.87;1.70;;;27.50;92.00;;;;;;6110109;23;20189;-94
2023/06/03 01:19:56;;;;;;;4.30;1.80;;;27.50;91.90;;;;;;6146215;23;20189;-94
2023/06/03 01:22:30;;;;;;;3.47;1.90;;;26.70;92.20;;;;;;6151921;23;20174;-94
2023/06/03 01:25:10;;;;;;;3.03;2.20;;;26.90;91.70;;;;;;6152329;23;20190;-94
2023/06/03 01:27:44;;;;;;;3.00;1.73;;;27.40;92.60;;;;;;6149896;23;20218;-96
2023/06/03 01:30:18;;;;;;;2.93;1.97;;;27.90;91.20;;;;;;6134795;23;20185;-93
2023/06/03 01:32:52;;;;;;;4.57;1.97;;;28.00;91.30;;;;;;6134005;23;20193;-94
2023/06/03 01:35:24;;;;;;;3.37;1.80;;;27.80;91.10;;;;;;6135282;23;20233;-93
2023/06/03 01:37:56;;;;;;;3.70;1.73;;;27.50;91.20;;;;;;6138970;23;20178;-94
2023/06/03 01:40:31;;;;;;;5.53;2.23;;;27.40;91.40;;;;;;6142496;23;20198;-94
2023/06/03 01:43:04;;;;;;;5.10;1.83;;;27.30;91.40;;;;;;6144146;23;20177;-94
2023/06/03 01:45:36;;;;;;;3.03;1.73;;;27.30;92.00;;;;;;6141361;23;20193;-94
2023/06/03 01:48:10;;;;;;;3.83;1.80;;;27.60;91.00;;;;;;6104702;23;20265;-93
2023/06/03 01:50:44;;;;;;;3.47;1.65;;;27.70;91.10;;;;;;6130427;23;20229;-94
2023/06/03 01:53:16;;;;;;;2.73;1.80;;;27.60;90.70;;;;;;6130307;23;20174;-92
2023/06/03 01:55:51;;;;;;;4.33;1.80;;;27.70;91.10;;;;;;6105114;23;20178;-93
2023/06/03 01:58:32;;;;;;;3.37;1.80;;;27.70;90.60;;;;;;6131313;23;20166;-93
2023/06/03 02:01:16;;;;;;;3.37;1.90;;;27.40;90.70;;;;;;6130919;23;20205;-95
2023/06/03 02:03:50;;;;;;;3.30;1.83;;;26.50;91.40;;;;;;6108086;23;20561;-95
2023/06/03 02:06:22;;;;;;;7.83;1.90;;;26.10;92.00;;;;;;6133366;23;20194;-93
2023/06/03 02:08:53;;;;;;;3.87;1.80;;;25.40;92.60;;;;;;6136543;23;20182;-94
2023/06/03 02:11:28;;;;;;;3.83;1.80;;;24.90;93.10;;;;;;6135614;23;20293;-94
2023/06/03 02:14:18;;;;;;;2.00;1.80;;;24.50;92.70;;;;;;6109779;23;20234;-94
2023/06/03 02:16:50;;;;;;;2.10;1.67;;;24.40;93.50;;;;;;6130653;23;20178;-94
2023/06/03 02:19:24;;;;;;;4.73;2.00;;;24.20;93.30;;;;;;6130553;23;20178;-95
2023/06/03 02:21:57;;;;;;;4.27;1.70;;;24.20;93.70;;;;;;6133806;23;20213;-94
2023/06/03 02:24:31;;;;;;;3.60;1.80;;;23.90;93.70;;;;;;6134056;23;20174;-95
2023/06/03 02:27:07;;;;;;;3.53;2.17;;;23.70;93.80;;;;;;6137931;23;20167;-95
2023/06/03 02:29:41;;;;;;;3.63;2.10;;;23.40;93.80;;;;;;6144531;23;20174;-95
2023/06/03 02:32:12;;;;;;;3.33;2.40;;;23.20;95.10;;;;;;6144647;23;20581;-93
2023/06/03 02:34:46;;;;;;;4.73;2.00;;;22.90;95.50;;;;;;6110150;23;20214;-92
2023/06/03 02:37:19;;;;;;;3.77;1.60;;;22.60;95.80;;;;;;6149815;23;20166;-93
2023/06/03 02:39:51;;;;;;;2.50;1.80;;;22.50;96.10;;;;;;6149504;23;20182;-93
2023/06/03 02:42:25;;;;;;;2.67;1.97;;;22.30;96.20;;;;;;6145333;23;20210;-92
2023/06/03 02:44:57;;;;;;;3.07;1.70;;;22.10;96.40;;;;;;6134427;23;20171;-93
2023/06/03 02:47:29;;;;;;;2.97;1.90;;;21.90;97.40;;;;;;6133747;23;20189;-94
2023/06/03 02:50:01;;;;;;;2.10;1.90;;;21.80;98.00;;;;;;6130224;23;20174;-94
2023/06/03 02:52:35;;;;;;;5.30;1.77;;;21.70;99.00;;;;;;6130905;23;20202;-93
2023/06/03 02:55:09;;;;;;;3.30;1.63;;;21.50;99.60;;;;;;6130460;23;20249;-94
2023/06/03 02:57:43;;;;;;;4.93;1.60;;;21.40;99.80;;;;;;6131861;23;20501;-94
2023/06/03 03:00:15;;;;;;;3.97;1.80;;;21.30;99.80;;;;;;6131280;23;20261;-94
2023/06/03 03:02:47;;;;;;;4.37;1.60;;;21.10;99.90;;;;;;6132342;23;20253;-93
2023/06/03 03:05:21;;;;;;;5.10;1.87;;;21.00;99.90;;;;;;6132045;23;20175;-94
2023/06/03 03:07:52;;;;;;;4.27;1.90;;;20.90;99.90;;;;;;6130883;23;20717;-94
2023/06/03 03:10:24;;;;;;;5.20;2.30;;;20.80;99.90;;;;;;6106984;23;20636;-94
2023/06/03 03:12:58;;;;;;;3.07;1.83;;;20.60;99.90;;;;;;6131397;23;20238;-95
2023/06/03 03:15:30;;;;;;;6.37;2.00;;;20.50;99.90;;;;;;6131761;23;20178;-94
2023/06/03 03:18:02;;;;;;;3.17;1.80;;;20.40;99.90;;;;;;6131212;23;20871;-94
2023/06/03 03:20:33;;;;;;;3.73;2.07;;;20.20;99.90;;;;;;6132366;23;20179;-93
2023/06/03 03:23:06;;;;;;;2.50;2.00;;;20.10;99.90;;;;;;6131325;23;20182;-93
2023/06/03 03:25:40;;;;;;;6.53;3.13;;;20.00;99.90;;;;;;6132822;23;20648;-93
2023/06/03 03:28:14;;;;;;;6.53;2.53;;;19.90;99.90;;;;;;6129544;23;20233;-94
2023/06/03 03:30:49;;;;;;;3.80;2.10;;;19.50;99.90;;;;;;6131772;23;20226;-94
2023/06/03 03:33:21;;;;;;;5.33;1.70;;;19.30;99.90;;;;;;6130934;23;20202;-94
2023/06/03 03:35:57;;;;;;;2.10;1.50;;;19.00;99.90;;;;;;6131129;23;20174;-93
2023/06/03 03:38:29;;;;;;;4.40;1.73;;;18.80;99.90;;;;;;6104517;23;20252;-93
2023/06/03 03:41:01;;;;;;;3.93;1.70;;;18.70;99.90;;;;;;6130865;23;20249;-93
2023/06/03 03:43:36;;;;;;;5.23;1.70;;;18.50;99.90;;;;;;6105682;23;20660;-93
2023/06/03 03:46:12;;;;;;;4.30;1.80;;;18.40;99.90;;;;;;6130528;23;20178;-92
2023/06/03 03:48:44;;;;;;;4.03;1.50;;;18.30;99.90;;;;;;6131568;23;20633;-93
2023/06/03 03:51:16;;;;;;;5.70;1.60;;;18.10;99.90;;;;;;6130838;23;20214;-92
2023/06/03 03:53:49;;;;;;;4.27;1.43;;;18.00;99.90;;;;;;6130430;23;20614;-93
2023/06/03 03:56:23;;;;;;;2.90;1.60;;;17.90;99.90;;;;;;6130489;23;20178;-93
2023/06/03 03:58:58;;;;;;;3.70;1.70;;;17.80;99.90;;;;;;6129680;23;20281;-93
2023/06/03 04:01:30;;;;;;;2.83;1.60;;;17.60;99.90;;;;;;6131778;23;20245;-93
2023/06/03 04:04:02;;;;;;;3.47;1.40;;;17.50;99.90;;;;;;6130684;23;20179;-93
2023/06/03 04:06:37;;;;;;;2.57;1.50;;;17.40;99.90;;;;;;6131447;23;20242;-92
2023/06/03 04:09:12;;;;;;;2.03;1.47;;;17.30;99.90;;;;;;6128596;23;20229;-93
2023/06/03 04:11:46;;;;;;;3.77;1.50;;;17.20;99.90;;;;;;6131982;23;20179;-95
2023/06/03 04:14:31;;;;;;;4.80;1.50;;;17.10;99.90;;;;;;6131968;23;20247;-93
2023/06/03 04:17:03;;;;;;;5.13;1.97;;;16.90;99.90;;;;;;6131571;23;20174;-94
2023/06/03 04:19:41;;;;;;;3.63;1.63;;;16.80;99.90;;;;;;6106044;23;20593;-94
2023/06/03 04:22:16;;;;;;;3.47;1.70;;;16.70;99.90;;;;;;6131177;23;20198;-93
2023/06/03 04:24:47;;;;;;;3.87;1.93;;;16.60;99.90;;;;;;6130474;23;20200;-93
2023/06/03 04:27:19;;;;;;;3.27;1.47;;;16.50;99.90;;;;;;6131326;23;20186;-93
2023/06/03 04:29:54;;;;;;;1.73;1.50;;;16.40;99.90;;;;;;6129370;23;20185;-93
2023/06/03 04:32:25;;;;;;;3.70;1.63;;;16.30;99.90;;;;;;6131065;23;20214;-92
2023/06/03 04:34:58;;;;;;;3.17;1.47;;;16.20;99.90;;;;;;6131428;23;20254;-92
2023/06/03 04:37:30;;;;;;;4.70;1.70;;;16.10;99.90;;;;;;6131890;23;20178;-92
2023/06/03 04:40:02;;;;;;;3.27;1.53;;;16.10;99.90;;;;;;6132502;23;20193;-94
2023/06/03 04:42:37;;;;;;;2.30;1.53;;;16.00;99.90;;;;;;6135960;23;20181;-93
2023/06/03 04:45:15;;;;;;;3.90;1.83;;;15.90;99.90;;;;;;6135700;23;20214;-92
2023/06/03 04:47:47;;;;;;;3.63;1.40;;;15.80;99.90;;;;;;6109611;23;20575;-92
2023/06/03 04:50:20;;;;;;;2.53;1.40;;;15.70;99.90;;;;;;6150173;23;20186;-94
2023/06/03 04:52:53;;;;;;;5.83;1.53;;;15.70;99.90;;;;;;6150924;23;20198;-92
2023/06/03 04:55:25;;;;;;;3.57;1.30;;;15.60;99.90;;;;;;6138894;23;20569;-91
2023/06/03 04:57:56;;;;;;;3.90;1.60;;;15.50;99.90;;;;;;6133460;23;20225;-93
2023/06/03 18:32:09;;;;;;;2.50;1.10;;;17.90;99.90;;;;;;6137076;23;20232;-92
2023/06/03 18:34:44;;;;;;;3.57;2.00;;;18.00;99.90;;;;;;6157267;23;20247;-93
2023/06/03 18:37:16;;;;;;;2.00;1.07;;;18.00;99.90;;;;;;6157101;23;20189;-92
2023/06/03 18:39:48;;;;;;;2.60;1.30;;;18.10;99.90;;;;;;6158344;23;20178;-91
2023/06/03 18:42:19;;;;;;;2.60;1.30;;;18.10;99.90;;;;;;6158000;23;20343;-91
2023/06/03 18:44:50;;;;;;;3.63;1.50;;;18.30;99.90;;;;;;6155913;23;20920;-90
2023/06/03 18:47:23;;;;;;;2.03;1.33;;;18.40;99.90;;;;;;6159459;23;20205;-95
2023/06/03 18:49:56;;;;;;;6.10;1.40;;;18.30;99.90;;;;;;6159152;23;20512;-94
2023/06/03 18:52:29;;;;;;;2.93;1.30;;;18.20;99.90;;;;;;6160088;23;20204;-95
2023/06/03 18:55:01;;;;;;;2.50;1.13;;;18.10;99.90;;;;;;6160695;23;20197;-95
2023/06/03 18:57:34;;;;;;;5.37;1.10;;;18.10;99.90;;;;;;6162004;23;20201;-96
2023/06/03 19:00:07;;;;;;;1.83;1.17;;;18.40;99.90;;;;;;6161480;23;20182;-95
2023/06/03 19:02:42;;;;;;;1.60;1.20;;;18.60;99.90;;;;;;6159182;23;20178;-95
2023/06/03 19:05:17;;;;;;;3.60;1.30;;;18.70;99.90;;;;;;6161254;23;20655;-95
2023/06/03 19:07:49;;;;;;;2.77;1.10;;;18.70;99.90;;;;;;6159208;23;20173;-95
2023/06/03 19:10:20;;;;;;;3.03;1.20;;;18.90;99.90;;;;;;6162106;23;20219;-95
2023/06/03 19:12:56;;;;;;;1.90;0.97;;;19.00;99.90;;;;;;6167779;23;20180;-95
2023/06/03 19:15:35;;;;;;;2.23;1.20;;;19.10;99.90;;;;;;6166981;23;20182;-95
2023/06/03 19:18:09;;;;;;;2.93;1.40;;;19.20;99.90;;;;;;6164993;23;20216;-94
2023/06/03 19:20:40;;;;;;;3.27;1.53;;;19.20;99.90;;;;;;6162278;23;20190;-93
2023/06/03 19:23:13;;;;;;;2.90;1.50;;;19.10;99.90;;;;;;6170636;23;20229;-94
2023/06/03 19:25:51;;;;;;;3.17;1.70;;;19.20;99.90;;;;;;6170566;23;20268;-94
2023/06/03 19:28:32;;;;;;;3.83;1.77;;;19.30;99.90;;;;;;6115795;23;20175;-95
2023/06/03 19:31:10;;;;;;;3.90;1.70;;;19.50;99.90;;;;;;6115094;23;20183;-93
2023/06/03 19:33:51;;;;;;;2.17;1.50;;;19.40;99.90;;;;;;6117557;23;20207;-94
2023/06/03 19:36:34;;;;;;;4.80;1.60;;;19.30;99.90;;;;;;6119648;23;20621;-92
2023/06/03 19:47:10;;;;;;;2.30;1.73;;;19.30;99.90;;;;;;6115770;23;20242;-95
2023/06/03 19:55:50;;;;;;;3.40;1.60;;;19.00;99.90;;;;;;6157507;23;20235;-96
2023/06/03 19:58:27;;;;;;;2.33;1.57;;;19.30;99.90;;;;;;6118909;23;20191;-96
2023/06/03 20:01:12;;;;;;;3.10;2.03;;;19.50;99.90;;;;;;6101216;23;20214;-96
2023/06/03 20:03:44;;;;;;;3.60;1.70;;;19.40;99.90;;;;;;6109519;23;20197;-95
2023/06/03 20:06:17;;;;;;;2.43;1.90;;;19.60;99.90;;;;;;6107610;23;20179;-96
2023/06/03 20:08:54;;;;;;;2.63;1.70;;;19.80;99.90;;;;;;6108265;23;20201;-95
2023/06/03 20:11:27;;;;;;;3.70;1.80;;;19.90;99.90;;;;;;6123057;23;20219;-96
2023/06/03 20:13:59;;;;;;;3.20;1.80;;;19.90;99.90;;;;;;6121224;23;20266;-95
2023/06/03 20:16:31;;;;;;;2.67;1.60;;;20.20;99.90;;;;;;6110913;23;20178;-95
2023/06/03 20:19:14;;;;;;;2.27;1.30;;;20.40;99.90;;;;;;6107963;23;20175;-96
2023/06/03 20:21:57;;;;;;;3.67;2.07;;;20.50;99.90;;;;;;6106528;23;20182;-96
2023/06/03 20:24:30;;;;;;;2.87;1.93;;;20.50;99.90;;;;;;6080681;23;20183;-95
2023/06/03 20:27:01;;;;;;;4.73;1.90;;;20.30;99.90;;;;;;6106456;23;20183;-96
2023/06/03 20:29:34;;;;;;;2.47;1.67;;;20.30;99.90;;;;;;6107643;23;20332;-96
2023/06/03 20:32:05;;;;;;;2.37;1.30;;;20.50;99.90;;;;;;6108578;23;20246;-95
2023/06/03 20:34:38;;;;;;;3.57;1.80;;;20.60;99.90;;;;;;6107314;23;20206;-92
2023/06/03 20:37:13;;;;;;;2.30;1.47;;;20.80;99.90;;;;;;6104752;23;20163;-94
2023/06/03 20:39:45;;;;;;;2.20;1.40;;;21.10;99.90;;;;;;6102685;23;20266;-96
2023/06/03 20:42:17;;;;;;;2.77;1.80;;;21.20;99.90;;;;;;6104183;23;20243;-94
2023/06/03 20:44:53;;;;;;;4.30;1.83;;;21.20;99.90;;;;;;6115520;23;20171;-95
2023/06/03 20:47:26;;;;;;;3.07;1.80;;;21.30;99.90;;;;;;6107070;23;20213;-94
2023/06/03 20:49:58;;;;;;;2.60;1.60;;;21.50;99.90;;;;;;6104263;23;20179;-95
2023/06/03 20:52:34;;;;;;;1.57;1.20;;;21.50;99.90;;;;;;6109224;23;20186;-96
2023/06/03 20:55:06;;;;;;;3.17;1.50;;;21.30;99.90;;;;;;6106142;23;20206;-96
2023/06/03 20:57:48;;;;;;;2.50;1.80;;;21.40;99.90;;;;;;6106579;23;20186;-96
2023/06/03 21:00:21;;;;;;;1.97;1.40;;;21.40;99.90;;;;;;6107087;23;20209;-96
2023/06/03 21:02:53;;;;;;;2.50;1.33;;;21.20;99.90;;;;;;6102868;23;20230;-96
2023/06/03 21:05:26;;;;;;;1.70;1.33;;;21.30;99.90;;;;;;6105961;23;20183;-96
2023/06/03 21:08:01;;;;;;;4.47;1.73;;;21.50;99.90;;;;;;6104297;23;20195;-96
2023/06/03 21:10:34;;;;;;;3.13;1.63;;;21.50;99.90;;;;;;6104106;23;20220;-96
2023/06/03 21:13:07;;;;;;;3.67;1.40;;;21.50;99.90;;;;;;6103573;23;20183;-96
2023/06/03 21:15:42;;;;;;;1.57;1.37;;;21.50;99.90;;;;;;6104227;23;20514;-96
2023/06/03 21:18:16;;;;;;;2.63;1.30;;;21.80;99.90;;;;;;6078422;23;20183;-94
2023/06/03 21:20:48;;;;;;;2.17;1.40;;;22.30;99.90;;;;;;6104102;23;20190;-95
2023/06/03 21:23:22;;;;;;;4.27;1.20;;;22.40;99.90;;;;;;6105523;23;20523;-95
2023/06/03 21:25:54;;;;;;;3.27;1.40;;;22.50;99.90;;;;;;6103270;23;20183;-96
2023/06/03 21:28:29;;;;;;;2.53;1.27;;;22.80;99.30;;;;;;6102576;23;20554;-94
2023/06/03 21:31:03;;;;;;;2.10;1.30;;;22.50;98.70;;;;;;6107606;23;20179;-95
2023/06/03 21:33:36;;;;;;;1.70;1.50;;;22.40;99.40;;;;;;6105322;23;20202;-95
2023/06/03 21:36:09;;;;;;;1.83;1.37;;;22.60;99.70;;;;;;6105019;23;20214;-94
2023/06/03 21:38:43;;;;;;;2.57;1.27;;;22.80;99.90;;;;;;6102449;23;20253;-96
2023/06/03 21:41:18;;;;;;;2.47;1.50;;;23.00;99.90;;;;;;6104239;23;20206;-95
2023/06/03 21:43:49;;;;;;;2.87;1.47;;;23.20;98.90;;;;;;6104324;23;20612;-95
2023/06/03 21:46:20;;;;;;;2.70;1.20;;;23.30;98.70;;;;;;6104271;23;20539;-95
2023/06/03 21:48:54;;;;;;;3.57;1.27;;;23.50;97.50;;;;;;6103107;23;20179;-95
2023/06/03 21:51:29;;;;;;;1.57;1.13;;;23.60;97.10;;;;;;6103928;23;20231;-95
2023/06/03 21:54:03;;;;;;;3.20;1.50;;;23.70;96.10;;;;;;6103413;23;20187;-96
2023/06/03 21:56:34;;;;;;;3.23;1.60;;;23.90;98.70;;;;;;6103620;23;20210;-94
2023/06/03 21:59:10;;;;;;;2.33;1.37;;;24.20;96.40;;;;;;6104546;23;20277;-95
2023/06/03 22:01:42;;;;;;;1.63;1.10;;;24.30;94.60;;;;;;6104725;23;20214;-95
2023/06/03 22:04:14;;;;;;;3.77;1.20;;;24.30;94.90;;;;;;6106167;23;20185;-95
2023/06/03 22:06:46;;;;;;;3.60;1.30;;;24.50;96.30;;;;;;6107305;23;20183;-95
2023/06/03 22:09:23;;;;;;;4.03;1.37;;;24.80;93.80;;;;;;6093264;23;20162;-95
2023/06/03 22:11:56;;;;;;;2.70;1.40;;;24.60;92.00;;;;;;6122604;23;20194;-95
2023/06/03 22:14:29;;;;;;;3.47;1.50;;;24.80;92.70;;;;;;6122070;23;20175;-94
2023/06/03 22:17:01;;;;;;;4.37;1.40;;;25.00;92.40;;;;;;6115653;23;20180;-95
2023/06/03 22:19:35;;;;;;;4.37;1.50;;;24.40;91.60;;;;;;6108233;23;20186;-95
2023/06/03 22:22:07;;;;;;;2.60;1.40;;;24.00;92.00;;;;;;6114517;23;20179;-95
2023/06/03 22:24:40;;;;;;;2.23;1.30;;;23.90;92.10;;;;;;6123179;23;20215;-95
2023/06/03 22:27:12;;;;;;;3.67;1.40;;;24.20;91.10;;;;;;6122150;23;20178;-95
2023/06/03 22:29:43;;;;;;;1.83;1.30;;;24.70;94.00;;;;;;6108038;23;20194;-94
2023/06/03 22:32:17;;;;;;;2.37;1.37;;;24.60;91.90;;;;;;6103912;23;20243;-95
2023/06/03 22:34:50;;;;;;;2.50;1.20;;;24.20;91.10;;;;;;6105920;23;20665;-95
2023/06/03 22:37:22;;;;;;;2.90;1.50;;;24.50;89.80;;;;;;6101762;23;20186;-94
2023/06/03 22:39:57;;;;;;;1.70;1.40;;;24.70;90.90;;;;;;6101385;23;20246;-95
2023/06/03 22:42:29;;;;;;;1.93;1.30;;;24.90;91.50;;;;;;6078937;23;20179;-93
2023/06/03 22:45:03;;;;;;;2.87;1.63;;;25.00;91.80;;;;;;6101528;23;20190;-93
2023/06/03 22:47:35;;;;;;;2.97;1.57;;;25.10;91.50;;;;;;6077618;23;20179;-94
2023/06/03 22:50:08;;;;;;;3.57;1.50;;;25.00;90.70;;;;;;6102160;23;20183;-94
2023/06/03 22:52:41;;;;;;;2.13;1.30;;;24.80;91.70;;;;;;6106206;23;20202;-94
2023/06/03 22:55:16;;;;;;;3.83;1.53;;;24.90;92.40;;;;;;6106893;23;20198;-94
2023/06/03 22:57:48;;;;;;;3.03;1.43;;;24.90;91.60;;;;;;6116259;23;20189;-93
2023/06/03 23:00:20;;;;;;;4.10;1.73;;;25.10;93.10;;;;;;6135058;23;20178;-93
2023/06/03 23:02:52;;;;;;;5.23;1.40;;;25.60;92.30;;;;;;6135515;23;20669;-93
2023/06/03 23:05:24;;;;;;;5.30;1.63;;;25.40;91.30;;;;;;6132029;23;20182;-94
2023/06/03 23:07:59;;;;;;;4.03;1.43;;;25.30;91.30;;;;;;6130745;23;20181;-93
2023/06/03 23:10:35;;;;;;;3.57;1.80;;;25.50;90.10;;;;;;6131491;23;20219;-94
2023/06/03 23:13:07;;;;;;;1.60;1.40;;;25.20;89.70;;;;;;6131367;23;20578;-94
2023/06/03 23:15:38;;;;;;;2.03;1.50;;;25.30;89.30;;;;;;6132858;23;20670;-94
2023/06/03 23:18:11;;;;;;;4.33;1.50;;;25.20;89.90;;;;;;6133700;23;20186;-94
2023/06/03 23:20:44;;;;;;;4.17;1.70;;;25.60;90.10;;;;;;6133691;23;20735;-94
2023/06/03 23:23:16;;;;;;;3.10;1.37;;;25.90;89.60;;;;;;6131655;23;20201;-94
2023/06/03 23:25:50;;;;;;;2.33;1.20;;;26.30;85.40;;;;;;6135032;23;20182;-93
2023/06/03 23:28:23;;;;;;;4.37;1.53;;;26.40;85.60;;;;;;6133752;23;20233;-94
2023/06/03 23:31:02;;;;;;;2.23;1.30;;;26.50;84.70;;;;;;6135187;23;20198;-94
2023/06/03 23:33:35;;;;;;;4.90;1.53;;;26.20;83.60;;;;;;6132242;23;20174;-95
2023/06/03 23:36:07;;;;;;;2.40;1.40;;;26.30;81.00;;;;;;6133377;23;20237;-94
2023/06/03 23:38:39;;;;;;;4.23;1.50;;;26.20;78.80;;;;;;6131157;23;20186;-94
2023/06/03 23:41:12;;;;;;;1.93;1.43;;;26.20;81.40;;;;;;6131543;23;20747;-93
2023/06/03 23:43:44;;;;;;;2.40;1.40;;;26.20;81.00;;;;;;6131009;23;20526;-94
2023/06/03 23:46:16;;;;;;;1.87;1.47;;;25.80;80.10;;;;;;6131256;23;20246;-94
2023/06/03 23:48:49;;;;;;;2.17;1.50;;;26.10;82.00;;;;;;6132496;23;20174;-93
2023/06/03 23:51:20;;;;;;;1.67;1.30;;;26.30;82.20;;;;;;6131127;23;20175;-93
2023/06/03 23:53:52;;;;;;;5.70;1.60;;;26.30;83.50;;;;;;6133176;23;20190;-92
2023/06/03 23:56:26;;;;;;;1.80;1.30;;;26.40;83.10;;;;;;6126413;23;20254;-93
2023/06/03 23:59:00;;;;;;;1.87;1.40;;;26.20;80.40;;;;;;6101550;23;20175;-93
